sensor_id;sensor_type;location;lat;lon;timestamp;temperature;humidity
47791;DHT22;33547;49.044;1.156;2022-11-13T00:00:34;16.40;61.10
47791;DHT22;33547;49.044;1.156;2022-11-13T00:03:00;16.40;61.10
47791;DHT22;33547;49.044;1.156;2022-11-13T00:05:26;16.40;61.10
47791;DHT22;33547;49.044;1.156;2022-11-13T00:07:52;16.40;61.10
47791;DHT22;33547;49.044;1.156;2022-11-13T00:10:17;16.40;61.10
47791;DHT22;33547;49.044;1.156;2022-11-13T00:12:43;16.40;61.00
47791;DHT22;33547;49.044;1.156;2022-11-13T00:15:09;16.40;61.00
47791;DHT22;33547;49.044;1.156;2022-11-13T00:17:35;16.40;61.10
47791;DHT22;33547;49.044;1.156;2022-11-13T00:20:02;16.40;61.10
47791;DHT22;33547;49.044;1.156;2022-11-13T00:22:28;16.40;61.10
47791;DHT22;33547;49.044;1.156;2022-11-13T00:24:54;16.40;61.00
47791;DHT22;33547;49.044;1.156;2022-11-13T00:27:19;16.40;60.90
47791;DHT22;33547;49.044;1.156;2022-11-13T00:29:45;16.40;60.90
47791;DHT22;33547;49.044;1.156;2022-11-13T00:32:11;16.50;60.90
47791;DHT22;33547;49.044;1.156;2022-11-13T00:34:37;16.50;60.90
47791;DHT22;33547;49.044;1.156;2022-11-13T00:37:03;16.50;60.90
47791;DHT22;33547;49.044;1.156;2022-11-13T00:39:28;16.60;60.90
47791;DHT22;33547;49.044;1.156;2022-11-13T00:41:54;16.60;60.90
47791;DHT22;33547;49.044;1.156;2022-11-13T00:44:20;16.60;60.90
47791;DHT22;33547;49.044;1.156;2022-11-13T00:46:46;16.60;60.90
47791;DHT22;33547;49.044;1.156;2022-11-13T00:49:12;16.60;60.90
47791;DHT22;33547;49.044;1.156;2022-11-13T00:51:38;16.60;60.90
47791;DHT22;33547;49.044;1.156;2022-11-13T00:54:03;16.60;60.90
47791;DHT22;33547;49.044;1.156;2022-11-13T00:56:29;16.60;60.90
47791;DHT22;33547;49.044;1.156;2022-11-13T00:58:55;16.70;61.00
47791;DHT22;33547;49.044;1.156;2022-11-13T01:01:21;16.60;60.90
47791;DHT22;33547;49.044;1.156;2022-11-13T01:03:47;16.70;61.00
47791;DHT22;33547;49.044;1.156;2022-11-13T01:06:21;16.60;60.90
47791;DHT22;33547;49.044;1.156;2022-11-13T01:08:49;16.70;61.00
47791;DHT22;33547;49.044;1.156;2022-11-13T01:11:17;16.60;61.00
47791;DHT22;33547;49.044;1.156;2022-11-13T01:13:46;16.60;61.00
47791;DHT22;33547;49.044;1.156;2022-11-13T01:16:14;16.60;61.00
47791;DHT22;33547;49.044;1.156;2022-11-13T01:18:40;16.60;61.00
47791;DHT22;33547;49.044;1.156;2022-11-13T01:21:18;16.60;61.00
47791;DHT22;33547;49.044;1.156;2022-11-13T01:23:46;16.60;60.90
47791;DHT22;33547;49.044;1.156;2022-11-13T01:26:17;16.60;61.00
47791;DHT22;33547;49.044;1.156;2022-11-13T01:28:45;16.60;61.00
47791;DHT22;33547;49.044;1.156;2022-11-13T01:31:15;16.60;61.00
47791;DHT22;33547;49.044;1.156;2022-11-13T01:33:44;16.60;61.00
47791;DHT22;33547;49.044;1.156;2022-11-13T01:36:13;16.60;61.00
47791;DHT22;33547;49.044;1.156;2022-11-13T01:38:44;16.60;61.00
47791;DHT22;33547;49.044;1.156;2022-11-13T01:41:25;16.50;61.00
47791;DHT22;33547;49.044;1.156;2022-11-13T01:43:54;16.50;60.90
47791;DHT22;33547;49.044;1.156;2022-11-13T01:46:50;16.50;61.00
47791;DHT22;33547;49.044;1.156;2022-11-13T01:49:40;16.50;60.90
47791;DHT22;33547;49.044;1.156;2022-11-13T01:54:46;16.50;60.90
47791;DHT22;33547;49.044;1.156;2022-11-13T01:57:14;16.50;61.00
47791;DHT22;33547;49.044;1.156;2022-11-13T01:59:44;16.50;61.60
47791;DHT22;33547;49.044;1.156;2022-11-13T02:02:13;16.50;60.90
47791;DHT22;33547;49.044;1.156;2022-11-13T02:04:38;16.50;61.00
47791;DHT22;33547;49.044;1.156;2022-11-13T02:07:07;16.40;60.80
47791;DHT22;33547;49.044;1.156;2022-11-13T02:09:41;16.40;60.90
47791;DHT22;33547;49.044;1.156;2022-11-13T02:12:12;16.40;60.90
47791;DHT22;33547;49.044;1.156;2022-11-13T02:14:46;16.40;60.90
47791;DHT22;33547;49.044;1.156;2022-11-13T02:17:24;16.40;60.80
47791;DHT22;33547;49.044;1.156;2022-11-13T02:19:57;16.40;60.90
47791;DHT22;33547;49.044;1.156;2022-11-13T02:22:50;16.40;60.80
47791;DHT22;33547;49.044;1.156;2022-11-13T02:25:27;16.40;60.90
47791;DHT22;33547;49.044;1.156;2022-11-13T02:27:54;16.40;60.70
47791;DHT22;33547;49.044;1.156;2022-11-13T02:30:26;16.40;60.80
47791;DHT22;33547;49.044;1.156;2022-11-13T02:32:55;16.50;60.80
47791;DHT22;33547;49.044;1.156;2022-11-13T02:35:34;16.50;60.70
47791;DHT22;33547;49.044;1.156;2022-11-13T02:38:03;16.50;60.70
47791;DHT22;33547;49.044;1.156;2022-11-13T02:40:31;16.50;60.70
47791;DHT22;33547;49.044;1.156;2022-11-13T02:42:57;16.50;60.70
47791;DHT22;33547;49.044;1.156;2022-11-13T02:45:23;16.60;60.80
47791;DHT22;33547;49.044;1.156;2022-11-13T02:47:49;16.60;60.70
47791;DHT22;33547;49.044;1.156;2022-11-13T02:50:16;16.60;60.70
47791;DHT22;33547;49.044;1.156;2022-11-13T02:52:42;16.60;60.70
47791;DHT22;33547;49.044;1.156;2022-11-13T02:55:08;16.60;60.80
47791;DHT22;33547;49.044;1.156;2022-11-13T02:57:34;16.70;61.40
47791;DHT22;33547;49.044;1.156;2022-11-13T03:00:00;16.70;60.80
47791;DHT22;33547;49.044;1.156;2022-11-13T03:02:26;16.60;60.80
47791;DHT22;33547;49.044;1.156;2022-11-13T03:04:52;16.70;60.80
47791;DHT22;33547;49.044;1.156;2022-11-13T03:07:18;16.70;60.80
47791;DHT22;33547;49.044;1.156;2022-11-13T03:09:44;16.70;60.80
47791;DHT22;33547;49.044;1.156;2022-11-13T03:12:10;16.60;60.80
47791;DHT22;33547;49.044;1.156;2022-11-13T03:14:36;16.70;60.80
47791;DHT22;33547;49.044;1.156;2022-11-13T03:17:02;16.60;60.70
47791;DHT22;33547;49.044;1.156;2022-11-13T03:19:28;16.60;60.80
47791;DHT22;33547;49.044;1.156;2022-11-13T03:21:54;16.60;60.80
47791;DHT22;33547;49.044;1.156;2022-11-13T03:24:20;16.60;60.80
47791;DHT22;33547;49.044;1.156;2022-11-13T03:26:46;16.60;60.80
47791;DHT22;33547;49.044;1.156;2022-11-13T03:29:11;16.60;60.80
47791;DHT22;33547;49.044;1.156;2022-11-13T03:31:38;16.60;60.80
47791;DHT22;33547;49.044;1.156;2022-11-13T03:34:04;16.60;60.80
47791;DHT22;33547;49.044;1.156;2022-11-13T03:36:30;16.60;60.80
47791;DHT22;33547;49.044;1.156;2022-11-13T03:38:56;16.60;60.80
47791;DHT22;33547;49.044;1.156;2022-11-13T03:41:22;16.60;60.80
47791;DHT22;33547;49.044;1.156;2022-11-13T03:43:47;16.60;60.80
47791;DHT22;33547;49.044;1.156;2022-11-13T03:46:14;16.50;60.80
47791;DHT22;33547;49.044;1.156;2022-11-13T03:48:40;16.50;60.80
47791;DHT22;33547;49.044;1.156;2022-11-13T03:51:06;16.50;60.80
47791;DHT22;33547;49.044;1.156;2022-11-13T03:53:32;16.50;60.80
47791;DHT22;33547;49.044;1.156;2022-11-13T03:55:58;16.50;60.80
47791;DHT22;33547;49.044;1.156;2022-11-13T03:58:24;16.50;60.70
47791;DHT22;33547;49.044;1.156;2022-11-13T04:00:53;16.50;60.70
47791;DHT22;33547;49.044;1.156;2022-11-13T04:03:20;16.50;60.70
47791;DHT22;33547;49.044;1.156;2022-11-13T04:05:47;16.40;60.70
47791;DHT22;33547;49.044;1.156;2022-11-13T04:08:15;16.50;60.70
47791;DHT22;33547;49.044;1.156;2022-11-13T04:10:42;16.40;60.70
47791;DHT22;33547;49.044;1.156;2022-11-13T04:13:09;16.40;60.70
47791;DHT22;33547;49.044;1.156;2022-11-13T04:15:36;16.40;60.70
47791;DHT22;33547;49.044;1.156;2022-11-13T04:18:02;16.40;60.60
47791;DHT22;33547;49.044;1.156;2022-11-13T04:20:28;16.40;61.30
47791;DHT22;33547;49.044;1.156;2022-11-13T04:22:57;16.40;60.60
47791;DHT22;33547;49.044;1.156;2022-11-13T04:25:24;16.40;60.60
47791;DHT22;33547;49.044;1.156;2022-11-13T04:27:51;16.40;60.70
47791;DHT22;33547;49.044;1.156;2022-11-13T04:30:18;16.40;60.60
47791;DHT22;33547;49.044;1.156;2022-11-13T04:32:44;16.40;60.50
47791;DHT22;33547;49.044;1.156;2022-11-13T04:35:10;16.40;60.50
47791;DHT22;33547;49.044;1.156;2022-11-13T04:37:36;16.40;60.50
47791;DHT22;33547;49.044;1.156;2022-11-13T04:40:03;16.50;60.50
47791;DHT22;33547;49.044;1.156;2022-11-13T04:42:29;16.50;60.50
47791;DHT22;33547;49.044;1.156;2022-11-13T04:45:15;16.50;60.50
47791;DHT22;33547;49.044;1.156;2022-11-13T04:47:53;16.50;60.50
47791;DHT22;33547;49.044;1.156;2022-11-13T04:50:19;16.60;60.50
47791;DHT22;33547;49.044;1.156;2022-11-13T04:52:45;16.60;60.50
47791;DHT22;33547;49.044;1.156;2022-11-13T04:55:11;16.60;61.10
47791;DHT22;33547;49.044;1.156;2022-11-13T04:57:38;16.60;60.50
47791;DHT22;33547;49.044;1.156;2022-11-13T05:00:06;16.60;60.60
47791;DHT22;33547;49.044;1.156;2022-11-13T05:02:33;16.60;60.50
47791;DHT22;33547;49.044;1.156;2022-11-13T05:04:59;16.60;60.50
47791;DHT22;33547;49.044;1.156;2022-11-13T05:07:25;16.60;60.60
47791;DHT22;33547;49.044;1.156;2022-11-13T05:09:52;16.60;60.50
47791;DHT22;33547;49.044;1.156;2022-11-13T05:12:19;16.60;60.60
47791;DHT22;33547;49.044;1.156;2022-11-13T05:14:44;16.60;60.60
47791;DHT22;33547;49.044;1.156;2022-11-13T05:17:11;16.60;60.60
47791;DHT22;33547;49.044;1.156;2022-11-13T05:19:38;16.60;60.60
47791;DHT22;33547;49.044;1.156;2022-11-13T05:22:04;16.60;60.60
47791;DHT22;33547;49.044;1.156;2022-11-13T05:24:31;16.60;60.60
47791;DHT22;33547;49.044;1.156;2022-11-13T05:26:56;16.60;60.60
47791;DHT22;33547;49.044;1.156;2022-11-13T05:29:22;16.60;60.60
47791;DHT22;33547;49.044;1.156;2022-11-13T05:31:48;16.60;60.60
47791;DHT22;33547;49.044;1.156;2022-11-13T05:34:14;16.60;60.60
47791;DHT22;33547;49.044;1.156;2022-11-13T05:36:40;16.50;60.60
47791;DHT22;33547;49.044;1.156;2022-11-13T05:39:06;16.50;60.60
47791;DHT22;33547;49.044;1.156;2022-11-13T05:41:32;16.50;60.60
47791;DHT22;33547;49.044;1.156;2022-11-13T05:43:58;16.50;60.60
47791;DHT22;33547;49.044;1.156;2022-11-13T05:46:26;16.50;60.60
47791;DHT22;33547;49.044;1.156;2022-11-13T05:48:58;16.50;60.60
47791;DHT22;33547;49.044;1.156;2022-11-13T05:51:27;16.50;60.60
47791;DHT22;33547;49.044;1.156;2022-11-13T05:53:54;16.50;60.60
47791;DHT22;33547;49.044;1.156;2022-11-13T05:56:28;16.50;60.70
47791;DHT22;33547;49.044;1.156;2022-11-13T05:58:56;16.50;60.60
47791;DHT22;33547;49.044;1.156;2022-11-13T06:01:34;16.40;60.60
47791;DHT22;33547;49.044;1.156;2022-11-13T06:04:05;16.40;60.60
47791;DHT22;33547;49.044;1.156;2022-11-13T06:06:32;16.40;60.60
47791;DHT22;33547;49.044;1.156;2022-11-13T06:09:00;16.40;60.60
47791;DHT22;33547;49.044;1.156;2022-11-13T06:11:28;16.40;60.60
47791;DHT22;33547;49.044;1.156;2022-11-13T06:13:56;16.40;60.60
47791;DHT22;33547;49.044;1.156;2022-11-13T06:16:24;16.40;60.60
47791;DHT22;33547;49.044;1.156;2022-11-13T06:18:57;16.40;60.60
47791;DHT22;33547;49.044;1.156;2022-11-13T06:21:27;16.40;60.60
47791;DHT22;33547;49.044;1.156;2022-11-13T06:23:59;16.30;60.80
47791;DHT22;33547;49.044;1.156;2022-11-13T06:26:32;16.30;60.60
47791;DHT22;33547;49.044;1.156;2022-11-13T06:28:59;16.30;60.60
47791;DHT22;33547;49.044;1.156;2022-11-13T06:31:32;16.30;60.40
47791;DHT22;33547;49.044;1.156;2022-11-13T06:33:59;16.40;60.50
47791;DHT22;33547;49.044;1.156;2022-11-13T06:36:28;16.40;60.40
47791;DHT22;33547;49.044;1.156;2022-11-13T06:38:56;16.40;60.40
47791;DHT22;33547;49.044;1.156;2022-11-13T06:41:27;16.40;60.30
47791;DHT22;33547;49.044;1.156;2022-11-13T06:43:54;16.50;60.40
47791;DHT22;33547;49.044;1.156;2022-11-13T06:46:24;16.50;60.40
47791;DHT22;33547;49.044;1.156;2022-11-13T06:48:52;16.50;60.40
47791;DHT22;33547;49.044;1.156;2022-11-13T06:51:21;16.50;60.40
47791;DHT22;33547;49.044;1.156;2022-11-13T06:53:49;16.60;60.40
47791;DHT22;33547;49.044;1.156;2022-11-13T06:56:16;16.60;60.40
47791;DHT22;33547;49.044;1.156;2022-11-13T06:58:42;16.60;60.40
47791;DHT22;33547;49.044;1.156;2022-11-13T07:01:13;16.60;60.40
47791;DHT22;33547;49.044;1.156;2022-11-13T07:03:40;16.60;60.40
47791;DHT22;33547;49.044;1.156;2022-11-13T07:06:09;16.60;60.40
47791;DHT22;33547;49.044;1.156;2022-11-13T07:08:40;16.60;60.40
47791;DHT22;33547;49.044;1.156;2022-11-13T07:11:09;16.60;60.50
47791;DHT22;33547;49.044;1.156;2022-11-13T07:13:37;16.60;60.50
47791;DHT22;33547;49.044;1.156;2022-11-13T07:16:05;16.60;60.50
47791;DHT22;33547;49.044;1.156;2022-11-13T07:18:32;16.60;60.50
47791;DHT22;33547;49.044;1.156;2022-11-13T07:21:02;16.60;60.50
47791;DHT22;33547;49.044;1.156;2022-11-13T07:23:29;16.60;60.50
47791;DHT22;33547;49.044;1.156;2022-11-13T07:25:55;16.60;60.60
47791;DHT22;33547;49.044;1.156;2022-11-13T07:28:21;16.50;60.50
47791;DHT22;33547;49.044;1.156;2022-11-13T07:30:47;16.60;60.60
47791;DHT22;33547;49.044;1.156;2022-11-13T07:33:13;16.50;60.50
47791;DHT22;33547;49.044;1.156;2022-11-13T07:35:39;16.50;60.50
47791;DHT22;33547;49.044;1.156;2022-11-13T07:38:04;16.50;60.50
47791;DHT22;33547;49.044;1.156;2022-11-13T07:40:30;16.50;60.50
47791;DHT22;33547;49.044;1.156;2022-11-13T07:43:00;16.50;60.50
47791;DHT22;33547;49.044;1.156;2022-11-13T07:45:27;16.50;60.50
47791;DHT22;33547;49.044;1.156;2022-11-13T07:47:57;16.50;60.50
47791;DHT22;33547;49.044;1.156;2022-11-13T07:50:29;16.50;60.50
47791;DHT22;33547;49.044;1.156;2022-11-13T07:53:06;16.50;60.60
47791;DHT22;33547;49.044;1.156;2022-11-13T07:55:34;16.50;60.60
47791;DHT22;33547;49.044;1.156;2022-11-13T07:58:01;16.40;60.50
47791;DHT22;33547;49.044;1.156;2022-11-13T08:00:29;16.50;60.50
47791;DHT22;33547;49.044;1.156;2022-11-13T08:02:57;16.40;61.10
47791;DHT22;33547;49.044;1.156;2022-11-13T08:05:23;16.40;60.50
47791;DHT22;33547;49.044;1.156;2022-11-13T08:07:51;16.40;60.40
47791;DHT22;33547;49.044;1.156;2022-11-13T08:10:18;16.40;60.40
47791;DHT22;33547;49.044;1.156;2022-11-13T08:12:45;16.40;60.50
47791;DHT22;33547;49.044;1.156;2022-11-13T08:15:11;16.40;60.50
47791;DHT22;33547;49.044;1.156;2022-11-13T08:17:37;16.40;60.40
47791;DHT22;33547;49.044;1.156;2022-11-13T08:20:04;16.40;60.40
47791;DHT22;33547;49.044;1.156;2022-11-13T08:22:31;16.30;60.40
47791;DHT22;33547;49.044;1.156;2022-11-13T08:24:57;16.30;60.40
47791;DHT22;33547;49.044;1.156;2022-11-13T08:27:23;16.30;60.40
47791;DHT22;33547;49.044;1.156;2022-11-13T08:29:49;16.30;60.40
47791;DHT22;33547;49.044;1.156;2022-11-13T08:32:17;16.30;60.50
47791;DHT22;33547;49.044;1.156;2022-11-13T08:34:44;16.30;60.20
47791;DHT22;33547;49.044;1.156;2022-11-13T08:37:10;16.30;60.40
47791;DHT22;33547;49.044;1.156;2022-11-13T08:39:36;16.30;60.20
47791;DHT22;33547;49.044;1.156;2022-11-13T08:42:02;16.40;60.30
47791;DHT22;33547;49.044;1.156;2022-11-13T08:44:29;16.40;60.30
47791;DHT22;33547;49.044;1.156;2022-11-13T08:46:55;16.40;60.20
47791;DHT22;33547;49.044;1.156;2022-11-13T08:49:21;16.40;60.20
47791;DHT22;33547;49.044;1.156;2022-11-13T08:51:47;16.50;60.30
47791;DHT22;33547;49.044;1.156;2022-11-13T08:54:13;16.50;60.30
47791;DHT22;33547;49.044;1.156;2022-11-13T08:56:39;16.50;60.60
47791;DHT22;33547;49.044;1.156;2022-11-13T08:59:05;16.50;60.30
47791;DHT22;33547;49.044;1.156;2022-11-13T09:01:30;16.50;60.30
47791;DHT22;33547;49.044;1.156;2022-11-13T09:03:56;16.50;60.30
47791;DHT22;33547;49.044;1.156;2022-11-13T09:06:23;16.50;60.30
47791;DHT22;33547;49.044;1.156;2022-11-13T09:08:50;16.50;60.30
47791;DHT22;33547;49.044;1.156;2022-11-13T09:11:16;16.50;60.30
47791;DHT22;33547;49.044;1.156;2022-11-13T09:13:42;16.50;60.30
47791;DHT22;33547;49.044;1.156;2022-11-13T09:16:08;16.60;60.40
47791;DHT22;33547;49.044;1.156;2022-11-13T09:18:34;16.50;60.30
47791;DHT22;33547;49.044;1.156;2022-11-13T09:21:00;16.50;60.40
47791;DHT22;33547;49.044;1.156;2022-11-13T09:23:30;16.50;60.40
47791;DHT22;33547;49.044;1.156;2022-11-13T09:25:56;16.50;60.50
47791;DHT22;33547;49.044;1.156;2022-11-13T09:28:25;16.50;60.40
47791;DHT22;33547;49.044;1.156;2022-11-13T09:30:51;16.50;60.40
47791;DHT22;33547;49.044;1.156;2022-11-13T09:33:17;16.50;60.40
47791;DHT22;33547;49.044;1.156;2022-11-13T09:35:43;16.50;60.40
47791;DHT22;33547;49.044;1.156;2022-11-13T09:38:11;16.50;60.40
47791;DHT22;33547;49.044;1.156;2022-11-13T09:41:00;16.50;60.40
47791;DHT22;33547;49.044;1.156;2022-11-13T09:43:54;16.50;60.40
47791;DHT22;33547;49.044;1.156;2022-11-13T09:49:20;16.40;60.40
47791;DHT22;33547;49.044;1.156;2022-11-13T09:51:55;16.40;60.40
47791;DHT22;33547;49.044;1.156;2022-11-13T09:54:22;16.40;60.40
47791;DHT22;33547;49.044;1.156;2022-11-13T10:05:22;16.40;60.50
47791;DHT22;33547;49.044;1.156;2022-11-13T10:08:14;16.40;60.50
47791;DHT22;33547;49.044;1.156;2022-11-13T10:10:52;16.40;60.50
47791;DHT22;33547;49.044;1.156;2022-11-13T10:13:46;16.30;60.50
47791;DHT22;33547;49.044;1.156;2022-11-13T10:16:34;16.30;60.40
47791;DHT22;33547;49.044;1.156;2022-11-13T10:22:19;16.30;60.50
47791;DHT22;33547;49.044;1.156;2022-11-13T10:24:50;16.30;60.50
47791;DHT22;33547;49.044;1.156;2022-11-13T10:27:17;16.30;60.50
47791;DHT22;33547;49.044;1.156;2022-11-13T10:29:43;16.30;60.60
47791;DHT22;33547;49.044;1.156;2022-11-13T10:32:31;16.30;60.50
47791;DHT22;33547;49.044;1.156;2022-11-13T10:40:37;16.30;60.60
47791;DHT22;33547;49.044;1.156;2022-11-13T10:45:39;16.20;60.50
47791;DHT22;33547;49.044;1.156;2022-11-13T10:48:18;16.30;60.40
47791;DHT22;33547;49.044;1.156;2022-11-13T10:51:02;16.30;60.40
47791;DHT22;33547;49.044;1.156;2022-11-13T10:53:41;16.30;60.40
47791;DHT22;33547;49.044;1.156;2022-11-13T10:56:22;16.30;60.40
47791;DHT22;33547;49.044;1.156;2022-11-13T10:59:10;16.30;60.40
47791;DHT22;33547;49.044;1.156;2022-11-13T11:01:39;16.30;60.40
47791;DHT22;33547;49.044;1.156;2022-11-13T11:04:12;16.30;60.40
47791;DHT22;33547;49.044;1.156;2022-11-13T11:06:43;16.30;60.40
47791;DHT22;33547;49.044;1.156;2022-11-13T11:09:31;16.30;60.40
47791;DHT22;33547;49.044;1.156;2022-11-13T11:11:58;16.30;60.50
47791;DHT22;33547;49.044;1.156;2022-11-13T11:17:28;16.30;60.50
47791;DHT22;33547;49.044;1.156;2022-11-13T11:22:32;16.40;60.60
47791;DHT22;33547;49.044;1.156;2022-11-13T11:30:55;16.40;60.60
47791;DHT22;33547;49.044;1.156;2022-11-13T11:34:10;16.30;60.60
47791;DHT22;33547;49.044;1.156;2022-11-13T11:42:08;16.30;60.60
47791;DHT22;33547;49.044;1.156;2022-11-13T11:45:14;16.30;60.60
47791;DHT22;33547;49.044;1.156;2022-11-13T11:47:45;16.30;60.60
47791;DHT22;33547;49.044;1.156;2022-11-13T11:50:16;16.30;60.60
47791;DHT22;33547;49.044;1.156;2022-11-13T11:53:03;16.30;60.60
47791;DHT22;33547;49.044;1.156;2022-11-13T11:56:11;16.30;60.60
47791;DHT22;33547;49.044;1.156;2022-11-13T12:13:51;16.30;60.70
47791;DHT22;33547;49.044;1.156;2022-11-13T12:22:21;16.20;60.70
47791;DHT22;33547;49.044;1.156;2022-11-13T12:33:46;16.20;60.70
47791;DHT22;33547;49.044;1.156;2022-11-13T12:36:15;16.20;60.80
47791;DHT22;33547;49.044;1.156;2022-11-13T12:44:28;16.20;60.80
47791;DHT22;33547;49.044;1.156;2022-11-13T12:46:56;16.20;60.80
47791;DHT22;33547;49.044;1.156;2022-11-13T12:49:31;16.20;60.80
47791;DHT22;33547;49.044;1.156;2022-11-13T12:52:02;16.10;60.70
47791;DHT22;33547;49.044;1.156;2022-11-13T12:54:35;16.10;60.70
47791;DHT22;33547;49.044;1.156;2022-11-13T12:59:55;16.20;60.80
47791;DHT22;33547;49.044;1.156;2022-11-13T13:02:39;16.10;60.70
47791;DHT22;33547;49.044;1.156;2022-11-13T13:05:28;16.20;60.80
47791;DHT22;33547;49.044;1.156;2022-11-13T13:11:16;16.20;60.80
47791;DHT22;33547;49.044;1.156;2022-11-13T13:16:44;16.20;60.90
47791;DHT22;33547;49.044;1.156;2022-11-13T13:19:32;16.20;60.90
47791;DHT22;33547;49.044;1.156;2022-11-13T13:21:58;16.20;60.90
47791;DHT22;33547;49.044;1.156;2022-11-13T13:24:35;16.20;60.90
47791;DHT22;33547;49.044;1.156;2022-11-13T13:27:20;16.20;60.90
47791;DHT22;33547;49.044;1.156;2022-11-13T13:29:50;16.30;60.90
47791;DHT22;33547;49.044;1.156;2022-11-13T13:32:34;16.20;60.90
47791;DHT22;33547;49.044;1.156;2022-11-13T13:35:29;16.30;61.00
47791;DHT22;33547;49.044;1.156;2022-11-13T13:40:56;16.20;60.90
47791;DHT22;33547;49.044;1.156;2022-11-13T13:46:32;16.30;60.90
47791;DHT22;33547;49.044;1.156;2022-11-13T13:49:06;16.20;61.00
47791;DHT22;33547;49.044;1.156;2022-11-13T13:51:44;16.30;61.10
47791;DHT22;33547;49.044;1.156;2022-11-13T13:54:16;16.30;61.10
47791;DHT22;33547;49.044;1.156;2022-11-13T13:56:45;16.20;61.10
47791;DHT22;33547;49.044;1.156;2022-11-13T13:59:19;16.30;61.10
47791;DHT22;33547;49.044;1.156;2022-11-13T14:01:58;16.30;61.10
47791;DHT22;33547;49.044;1.156;2022-11-13T14:04:34;16.20;61.00
47791;DHT22;33547;49.044;1.156;2022-11-13T14:10:24;16.20;61.00
47791;DHT22;33547;49.044;1.156;2022-11-13T14:12:49;16.20;61.00
47791;DHT22;33547;49.044;1.156;2022-11-13T14:15:33;16.20;61.10
47791;DHT22;33547;49.044;1.156;2022-11-13T14:18:16;16.20;61.00
47791;DHT22;33547;49.044;1.156;2022-11-13T14:20:51;16.20;61.10
47791;DHT22;33547;49.044;1.156;2022-11-13T14:23:43;16.20;61.00
47791;DHT22;33547;49.044;1.156;2022-11-13T14:26:11;16.20;61.00
47791;DHT22;33547;49.044;1.156;2022-11-13T14:31:18;16.20;61.10
47791;DHT22;33547;49.044;1.156;2022-11-13T14:36:26;16.20;61.00
47791;DHT22;33547;49.044;1.156;2022-11-13T14:38:56;16.10;61.00
47791;DHT22;33547;49.044;1.156;2022-11-13T14:41:36;16.20;61.10
47791;DHT22;33547;49.044;1.156;2022-11-13T14:44:05;16.20;61.10
47791;DHT22;33547;49.044;1.156;2022-11-13T14:46:34;16.20;61.10
47791;DHT22;33547;49.044;1.156;2022-11-13T14:49:28;16.10;61.10
47791;DHT22;33547;49.044;1.156;2022-11-13T14:51:58;16.20;61.10
47791;DHT22;33547;49.044;1.156;2022-11-13T14:54:36;16.10;61.10
47791;DHT22;33547;49.044;1.156;2022-11-13T14:57:13;16.10;61.00
47791;DHT22;33547;49.044;1.156;2022-11-13T14:59:39;16.10;61.70
47791;DHT22;33547;49.044;1.156;2022-11-13T15:02:09;16.10;61.10
47791;DHT22;33547;49.044;1.156;2022-11-13T15:04:36;16.10;61.10
47791;DHT22;33547;49.044;1.156;2022-11-13T15:07:16;16.10;61.10
47791;DHT22;33547;49.044;1.156;2022-11-13T15:09:56;16.10;61.00
47791;DHT22;33547;49.044;1.156;2022-11-13T15:12:22;16.10;61.00
47791;DHT22;33547;49.044;1.156;2022-11-13T15:14:48;16.10;61.10
47791;DHT22;33547;49.044;1.156;2022-11-13T15:17:17;16.10;61.10
47791;DHT22;33547;49.044;1.156;2022-11-13T15:19:45;16.10;61.10
47791;DHT22;33547;49.044;1.156;2022-11-13T15:22:13;16.10;61.10
47791;DHT22;33547;49.044;1.156;2022-11-13T15:24:40;16.10;61.10
47791;DHT22;33547;49.044;1.156;2022-11-13T15:27:08;16.10;61.20
47791;DHT22;33547;49.044;1.156;2022-11-13T15:29:37;16.20;61.20
47791;DHT22;33547;49.044;1.156;2022-11-13T15:32:03;16.20;61.20
47791;DHT22;33547;49.044;1.156;2022-11-13T15:34:29;16.20;61.20
47791;DHT22;33547;49.044;1.156;2022-11-13T15:36:55;16.20;61.20
47791;DHT22;33547;49.044;1.156;2022-11-13T15:39:21;16.30;61.30
47791;DHT22;33547;49.044;1.156;2022-11-13T15:41:47;16.30;61.30
47791;DHT22;33547;49.044;1.156;2022-11-13T15:44:13;16.30;61.30
47791;DHT22;33547;49.044;1.156;2022-11-13T15:46:40;16.30;61.20
47791;DHT22;33547;49.044;1.156;2022-11-13T15:49:06;16.30;61.20
47791;DHT22;33547;49.044;1.156;2022-11-13T15:51:41;16.20;61.20
47791;DHT22;33547;49.044;1.156;2022-11-13T15:54:24;16.20;61.30
47791;DHT22;33547;49.044;1.156;2022-11-13T15:56:52;16.30;61.30
47791;DHT22;33547;49.044;1.156;2022-11-13T15:59:18;16.20;61.40
47791;DHT22;33547;49.044;1.156;2022-11-13T16:01:44;16.30;61.30
47791;DHT22;33547;49.044;1.156;2022-11-13T16:04:11;16.30;61.40
47791;DHT22;33547;49.044;1.156;2022-11-13T16:06:39;16.30;61.40
47791;DHT22;33547;49.044;1.156;2022-11-13T16:09:11;16.20;61.30
47791;DHT22;33547;49.044;1.156;2022-11-13T16:11:38;16.30;61.40
47791;DHT22;33547;49.044;1.156;2022-11-13T16:14:04;16.30;61.30
47791;DHT22;33547;49.044;1.156;2022-11-13T16:16:35;16.30;61.40
47791;DHT22;33547;49.044;1.156;2022-11-13T16:19:12;16.30;61.30
47791;DHT22;33547;49.044;1.156;2022-11-13T16:21:46;16.30;61.40
47791;DHT22;33547;49.044;1.156;2022-11-13T16:24:12;16.20;61.30
47791;DHT22;33547;49.044;1.156;2022-11-13T16:26:38;16.20;61.30
47791;DHT22;33547;49.044;1.156;2022-11-13T16:29:17;16.20;61.30
47791;DHT22;33547;49.044;1.156;2022-11-13T16:31:44;16.20;61.30
47791;DHT22;33547;49.044;1.156;2022-11-13T16:34:10;16.30;61.30
47791;DHT22;33547;49.044;1.156;2022-11-13T16:36:36;16.30;61.40
47791;DHT22;33547;49.044;1.156;2022-11-13T16:39:03;16.20;61.30
47791;DHT22;33547;49.044;1.156;2022-11-13T16:41:30;16.20;61.30
47791;DHT22;33547;49.044;1.156;2022-11-13T16:43:56;16.20;61.30
47791;DHT22;33547;49.044;1.156;2022-11-13T16:46:27;16.20;61.30
47791;DHT22;33547;49.044;1.156;2022-11-13T16:48:54;16.20;61.30
47791;DHT22;33547;49.044;1.156;2022-11-13T16:51:20;16.20;61.30
47791;DHT22;33547;49.044;1.156;2022-11-13T16:53:46;16.20;61.30
47791;DHT22;33547;49.044;1.156;2022-11-13T16:56:13;16.20;61.30
47791;DHT22;33547;49.044;1.156;2022-11-13T16:58:55;16.20;61.30
47791;DHT22;33547;49.044;1.156;2022-11-13T17:01:22;16.20;61.30
47791;DHT22;33547;49.044;1.156;2022-11-13T17:03:48;16.20;61.30
47791;DHT22;33547;49.044;1.156;2022-11-13T17:06:31;16.20;61.30
47791;DHT22;33547;49.044;1.156;2022-11-13T17:08:59;16.20;61.30
47791;DHT22;33547;49.044;1.156;2022-11-13T17:11:29;16.20;61.30
47791;DHT22;33547;49.044;1.156;2022-11-13T17:14:00;16.20;61.30
47791;DHT22;33547;49.044;1.156;2022-11-13T17:16:27;16.20;61.30
47791;DHT22;33547;49.044;1.156;2022-11-13T17:18:54;16.10;61.30
47791;DHT22;33547;49.044;1.156;2022-11-13T17:21:22;16.10;61.20
47791;DHT22;33547;49.044;1.156;2022-11-13T17:23:59;16.10;61.30
47791;DHT22;33547;49.044;1.156;2022-11-13T17:26:28;16.20;61.30
47791;DHT22;33547;49.044;1.156;2022-11-13T17:28:55;16.10;61.20